sensor_id;sensor_type;location;lat;lon;timestamp;pressure;altitude;pressure_sealevel;temperature;humidity
9325;BME280;4701;51.566;6.776;2023-02-22T07:02:46;100958.28;;;4.30;100.00
9325;BME280;4701;51.566;6.776;2023-02-22T07:04:48;100969.63;;;4.39;100.00
9325;BME280;4701;51.566;6.776;2023-02-22T07:06:50;100965.16;;;4.51;100.00
9325;BME280;4701;51.566;6.776;2023-02-22T07:08:52;100969.06;;;4.55;100.00
9325;BME280;4701;51.566;6.776;2023-02-22T07:10:54;100973.34;;;4.63;100.00
9325;BME280;4701;51.566;6.776;2023-02-22T07:12:56;100964.22;;;4.64;100.00
9325;BME280;4701;51.566;6.776;2023-02-22T07:14:57;100968.94;;;4.68;100.00
9325;BME280;4701;51.566;6.776;2023-02-22T07:16:59;100972.84;;;4.72;100.00
9325;BME280;4701;51.566;6.776;2023-02-22T07:19:02;100969.19;;;4.67;100.00
9325;BME280;4701;51.566;6.776;2023-02-22T07:21:05;100970.97;;;4.73;100.00
9325;BME280;4701;51.566;6.776;2023-02-22T07:23:07;100967.06;;;4.69;100.00
9325;BME280;4701;51.566;6.776;2023-02-22T07:25:09;100966.34;;;4.80;100.00
9325;BME280;4701;51.566;6.776;2023-02-22T07:27:11;100964.03;;;4.83;100.00
9325;BME280;4701;51.566;6.776;2023-02-22T07:29:13;100969.19;;;4.85;100.00
9325;BME280;4701;51.566;6.776;2023-02-22T07:31:15;100967.78;;;4.82;100.00
9325;BME280;4701;51.566;6.776;2023-02-22T07:33:17;100961.91;;;4.85;100.00
9325;BME280;4701;51.566;6.776;2023-02-22T07:35:22;100960.44;;;4.89;100.00
9325;BME280;4701;51.566;6.776;2023-02-22T07:37:25;100957.88;;;4.94;100.00
9325;BME280;4701;51.566;6.776;2023-02-22T07:39:27;100959.09;;;4.99;100.00
9325;BME280;4701;51.566;6.776;2023-02-22T07:41:28;100960.44;;;5.08;100.00
9325;BME280;4701;51.566;6.776;2023-02-22T07:43:30;100957.94;;;5.06;100.00
9325;BME280;4701;51.566;6.776;2023-02-22T07:45:34;100957.66;;;5.14;100.00
9325;BME280;4701;51.566;6.776;2023-02-22T07:47:35;100951.94;;;5.22;100.00
9325;BME280;4701;51.566;6.776;2023-02-22T07:49:37;100951.84;;;5.29;100.00
9325;BME280;4701;51.566;6.776;2023-02-22T07:51:40;100953.16;;;5.26;100.00
9325;BME280;4701;51.566;6.776;2023-02-22T07:53:42;100953.41;;;5.37;100.00
9325;BME280;4701;51.566;6.776;2023-02-22T07:55:44;100948.31;;;5.47;100.00
9325;BME280;4701;51.566;6.776;2023-02-22T07:57:47;100938.22;;;5.54;100.00
9325;BME280;4701;51.566;6.776;2023-02-22T07:59:49;100946.25;;;5.60;100.00
9325;BME280;4701;51.566;6.776;2023-02-22T08:01:51;100944.75;;;5.64;100.00
9325;BME280;4701;51.566;6.776;2023-02-22T08:03:53;100945.78;;;5.63;100.00
9325;BME280;4701;51.566;6.776;2023-02-22T08:05:56;100942.31;;;5.75;100.00
9325;BME280;4701;51.566;6.776;2023-02-22T08:08:01;100939.16;;;5.78;100.00
9325;BME280;4701;51.566;6.776;2023-02-22T08:10:06;100937.84;;;5.80;100.00
9325;BME280;4701;51.566;6.776;2023-02-22T08:12:08;100940.84;;;5.90;100.00
9325;BME280;4701;51.566;6.776;2023-02-22T08:14:10;100937.81;;;5.98;100.00
9325;BME280;4701;51.566;6.776;2023-02-22T08:16:12;100937.50;;;6.06;100.00
9325;BME280;4701;51.566;6.776;2023-02-22T08:18:15;100936.22;;;6.09;100.00
9325;BME280;4701;51.566;6.776;2023-02-22T08:22:27;100936.81;;;6.23;100.00
9325;BME280;4701;51.566;6.776;2023-02-22T08:24:31;100932.94;;;6.30;100.00
9325;BME280;4701;51.566;6.776;2023-02-22T08:26:32;100929.53;;;6.35;100.00
9325;BME280;4701;51.566;6.776;2023-02-22T08:28:34;100923.53;;;6.44;100.00
9325;BME280;4701;51.566;6.776;2023-02-22T08:30:37;100926.81;;;6.46;100.00
9325;BME280;4701;51.566;6.776;2023-02-22T08:32:39;100930.84;;;6.44;100.00
9325;BME280;4701;51.566;6.776;2023-02-22T08:34:41;100928.97;;;6.44;100.00
9325;BME280;4701;51.566;6.776;2023-02-22T08:36:43;100928.47;;;6.47;100.00
9325;BME280;4701;51.566;6.776;2023-02-22T08:38:45;100930.63;;;6.45;100.00
9325;BME280;4701;51.566;6.776;2023-02-22T08:40:49;100932.47;;;6.57;100.00
9325;BME280;4701;51.566;6.776;2023-02-22T08:42:51;100936.63;;;6.71;100.00
9325;BME280;4701;51.566;6.776;2023-02-22T08:44:52;100927.63;;;6.82;100.00
9325;BME280;4701;51.566;6.776;2023-02-22T08:46:54;100927.28;;;6.90;100.00
9325;BME280;4701;51.566;6.776;2023-02-22T08:48:56;100921.25;;;7.00;100.00
9325;BME280;4701;51.566;6.776;2023-02-22T08:50:58;100925.97;;;7.04;100.00
9325;BME280;4701;51.566;6.776;2023-02-22T08:53:02;100928.19;;;7.07;100.00
9325;BME280;4701;51.566;6.776;2023-02-22T08:55:05;100922.66;;;7.14;100.00
9325;BME280;4701;51.566;6.776;2023-02-22T08:57:08;100916.50;;;7.18;100.00
9325;BME280;4701;51.566;6.776;2023-02-22T08:59:10;100920.63;;;7.21;100.00
9325;BME280;4701;51.566;6.776;2023-02-22T09:01:12;100919.88;;;7.26;100.00
9325;BME280;4701;51.566;6.776;2023-02-22T09:03:14;100924.59;;;7.30;100.00
9325;BME280;4701;51.566;6.776;2023-02-22T09:05:16;100923.63;;;7.36;100.00
9325;BME280;4701;51.566;6.776;2023-02-22T09:07:18;100919.13;;;7.42;100.00
9325;BME280;4701;51.566;6.776;2023-02-22T09:09:19;100919.44;;;7.57;100.00
9325;BME280;4701;51.566;6.776;2023-02-22T09:11:21;100920.28;;;7.74;100.00
9325;BME280;4701;51.566;6.776;2023-02-22T09:13:25;100915.28;;;7.83;100.00
9325;BME280;4701;51.566;6.776;2023-02-22T09:15:27;100918.19;;;7.93;100.00
9325;BME280;4701;51.566;6.776;2023-02-22T09:17:29;100916.94;;;8.01;100.00
9325;BME280;4701;51.566;6.776;2023-02-22T09:19:30;100913.16;;;8.02;100.00
9325;BME280;4701;51.566;6.776;2023-02-22T09:24:27;100921.63;;;8.50;100.00
9325;BME280;4701;51.566;6.776;2023-02-22T09:26:29;100916.19;;;8.50;100.00
9325;BME280;4701;51.566;6.776;2023-02-22T09:28:30;100924.16;;;8.40;100.00
9325;BME280;4701;51.566;6.776;2023-02-22T09:30:33;100913.47;;;8.33;100.00
9325;BME280;4701;51.566;6.776;2023-02-22T09:32:36;100910.63;;;8.28;100.00
9325;BME280;4701;51.566;6.776;2023-02-22T09:34:37;100918.78;;;8.28;100.00
9325;BME280;4701;51.566;6.776;2023-02-22T09:36:45;100917.97;;;8.28;100.00
9325;BME280;4701;51.566;6.776;2023-02-22T09:38:47;100920.44;;;8.29;100.00
9325;BME280;4701;51.566;6.776;2023-02-22T09:40:53;100912.38;;;8.34;100.00
9325;BME280;4701;51.566;6.776;2023-02-22T09:43:08;100911.66;;;8.39;100.00
9325;BME280;4701;51.566;6.776;2023-02-22T09:45:19;100904.81;;;8.37;100.00
9325;BME280;4701;51.566;6.776;2023-02-22T09:47:25;100906.28;;;8.44;100.00
9325;BME280;4701;51.566;6.776;2023-02-22T09:49:36;100909.94;;;8.50;100.00
9325;BME280;4701;51.566;6.776;2023-02-22T09:51:42;100903.50;;;8.56;100.00
9325;BME280;4701;51.566;6.776;2023-02-22T09:53:49;100902.72;;;8.60;100.00
9325;BME280;4701;51.566;6.776;2023-02-22T09:55:53;100906.03;;;8.62;100.00
9325;BME280;4701;51.566;6.776;2023-02-22T09:58:00;100903.72;;;8.71;100.00
9325;BME280;4701;51.566;6.776;2023-02-22T10:00:06;100904.69;;;8.82;100.00
9325;BME280;4701;51.566;6.776;2023-02-22T10:02:25;100902.25;;;8.85;100.00
9325;BME280;4701;51.566;6.776;2023-02-22T10:04:37;100898.31;;;8.93;100.00
9325;BME280;4701;51.566;6.776;2023-02-22T10:06:54;100889.88;;;8.94;100.00
9325;BME280;4701;51.566;6.776;2023-02-22T10:09:02;100888.38;;;9.03;100.00
9325;BME280;4701;51.566;6.776;2023-02-22T10:11:17;100889.06;;;8.94;100.00
9325;BME280;4701;51.566;6.776;2023-02-22T10:13:28;100895.66;;;8.98;100.00
9325;BME280;4701;51.566;6.776;2023-02-22T10:15:43;100890.66;;;9.11;100.00
9325;BME280;4701;51.566;6.776;2023-02-22T10:17:52;100886.97;;;9.23;100.00
9325;BME280;4701;51.566;6.776;2023-02-22T10:20:06;100890.84;;;9.27;100.00
9325;BME280;4701;51.566;6.776;2023-02-22T10:22:35;100874.38;;;9.38;100.00
9325;BME280;4701;51.566;6.776;2023-02-22T10:24:48;100879.72;;;9.55;100.00
9325;BME280;4701;51.566;6.776;2023-02-22T10:26:57;100878.44;;;9.63;100.00
9325;BME280;4701;51.566;6.776;2023-02-22T10:29:02;100874.38;;;9.65;100.00
9325;BME280;4701;51.566;6.776;2023-02-22T10:31:08;100875.78;;;9.68;100.00
9325;BME280;4701;51.566;6.776;2023-02-22T10:33:13;100871.22;;;9.78;100.00
9325;BME280;4701;51.566;6.776;2023-02-22T10:35:20;100865.34;;;9.86;100.00
9325;BME280;4701;51.566;6.776;2023-02-22T10:37:24;100863.72;;;9.91;100.00
9325;BME280;4701;51.566;6.776;2023-02-22T10:39:30;100858.13;;;10.02;100.00
9325;BME280;4701;51.566;6.776;2023-02-22T10:41:33;100857.63;;;10.10;100.00
9325;BME280;4701;51.566;6.776;2023-02-22T10:43:39;100858.41;;;10.06;98.99
9325;BME280;4701;51.566;6.776;2023-02-22T10:45:42;100852.22;;;10.15;99.41
9325;BME280;4701;51.566;6.776;2023-02-22T10:47:44;100855.19;;;10.14;98.36
9325;BME280;4701;51.566;6.776;2023-02-22T10:49:50;100851.28;;;10.32;98.69
9325;BME280;4701;51.566;6.776;2023-02-22T10:52:00;100851.50;;;10.25;96.76
9325;BME280;4701;51.566;6.776;2023-02-22T10:54:20;100859.78;;;10.40;97.14
9325;BME280;4701;51.566;6.776;2023-02-22T10:56:26;100848.13;;;10.50;97.35
9325;BME280;4701;51.566;6.776;2023-02-22T10:58:28;100849.28;;;10.64;97.17
9325;BME280;4701;51.566;6.776;2023-02-22T11:00:33;100846.09;;;10.77;97.06
9325;BME280;4701;51.566;6.776;2023-02-22T11:02:36;100840.72;;;10.92;97.02
9325;BME280;4701;51.566;6.776;2023-02-22T11:04:46;100828.72;;;10.98;95.57
9325;BME280;4701;51.566;6.776;2023-02-22T11:07:06;100831.75;;;11.02;94.69
9325;BME280;4701;51.566;6.776;2023-02-22T11:09:12;100829.53;;;10.99;93.63
9325;BME280;4701;51.566;6.776;2023-02-22T11:11:21;100831.53;;;11.19;93.90
9325;BME280;4701;51.566;6.776;2023-02-22T11:13:27;100832.94;;;11.36;92.91
9325;BME280;4701;51.566;6.776;2023-02-22T11:15:30;100830.78;;;11.49;91.58
9325;BME280;4701;51.566;6.776;2023-02-22T11:17:33;100822.88;;;11.57;91.59
9325;BME280;4701;51.566;6.776;2023-02-22T11:19:35;100826.69;;;11.66;92.29
9325;BME280;4701;51.566;6.776;2023-02-22T11:21:41;100822.94;;;11.78;92.17
9325;BME280;4701;51.566;6.776;2023-02-22T11:23:43;100824.03;;;11.87;92.04
9325;BME280;4701;51.566;6.776;2023-02-22T11:25:45;100824.03;;;11.97;90.54
9325;BME280;4701;51.566;6.776;2023-02-22T11:27:48;100826.47;;;12.03;90.44
9325;BME280;4701;51.566;6.776;2023-02-22T11:29:50;100824.84;;;12.12;90.96
9325;BME280;4701;51.566;6.776;2023-02-22T11:31:54;100818.25;;;12.29;89.93
9325;BME280;4701;51.566;6.776;2023-02-22T11:33:57;100814.41;;;12.35;90.07
9325;BME280;4701;51.566;6.776;2023-02-22T11:36:01;100818.22;;;12.44;89.87
9325;BME280;4701;51.566;6.776;2023-02-22T11:38:16;100811.09;;;12.48;88.41
9325;BME280;4701;51.566;6.776;2023-02-22T11:40:20;100813.00;;;12.52;87.04
9325;BME280;4701;51.566;6.776;2023-02-22T11:42:24;100810.22;;;12.68;86.39
9325;BME280;4701;51.566;6.776;2023-02-22T11:44:27;100806.06;;;12.80;85.38
9325;BME280;4701;51.566;6.776;2023-02-22T11:46:31;100804.69;;;12.83;85.74
9325;BME280;4701;51.566;6.776;2023-02-22T11:48:38;100801.94;;;12.88;86.02
9325;BME280;4701;51.566;6.776;2023-02-22T11:50:56;100804.41;;;12.84;83.55
9325;BME280;4701;51.566;6.776;2023-02-22T11:53:14;100805.75;;;12.87;82.23
9325;BME280;4701;51.566;6.776;2023-02-22T11:55:28;100797.25;;;12.94;81.91
9325;BME280;4701;51.566;6.776;2023-02-22T11:57:46;100797.78;;;13.01;82.40
9325;BME280;4701;51.566;6.776;2023-02-22T11:59:59;100795.31;;;12.99;81.45
9325;BME280;4701;51.566;6.776;2023-02-22T12:02:24;100786.75;;;13.11;81.19
9325;BME280;4701;51.566;6.776;2023-02-22T12:04:41;100777.59;;;13.36;83.04
9325;BME280;4701;51.566;6.776;2023-02-22T12:06:50;100778.41;;;13.41;81.93
9325;BME280;4701;51.566;6.776;2023-02-22T12:09:05;100774.19;;;13.59;82.72
9325;BME280;4701;51.566;6.776;2023-02-22T12:11:13;100771.63;;;13.68;81.22
9325;BME280;4701;51.566;6.776;2023-02-22T12:13:29;100766.03;;;13.83;80.64
9325;BME280;4701;51.566;6.776;2023-02-22T12:15:38;100766.78;;;13.88;78.91
9325;BME280;4701;51.566;6.776;2023-02-22T12:17:51;100774.63;;;14.00;78.48
9325;BME280;4701;51.566;6.776;2023-02-22T12:20:04;100765.78;;;14.08;77.89
9325;BME280;4701;51.566;6.776;2023-02-22T12:22:18;100769.72;;;14.26;76.67
9325;BME280;4701;51.566;6.776;2023-02-22T12:24:23;100772.25;;;14.46;76.81
9325;BME280;4701;51.566;6.776;2023-02-22T12:26:29;100768.75;;;14.64;75.53
9325;BME280;4701;51.566;6.776;2023-02-22T12:28:35;100760.56;;;14.83;74.40
9325;BME280;4701;51.566;6.776;2023-02-22T12:30:43;100768.47;;;14.66;69.83
9325;BME280;4701;51.566;6.776;2023-02-22T12:32:49;100768.00;;;14.59;66.23
9325;BME280;4701;51.566;6.776;2023-02-22T12:34:56;100761.69;;;14.58;64.74
9325;BME280;4701;51.566;6.776;2023-02-22T12:37:06;100766.25;;;14.68;64.98
9325;BME280;4701;51.566;6.776;2023-02-22T12:39:26;100765.78;;;15.03;64.40
9325;BME280;4701;51.566;6.776;2023-02-22T12:41:37;100753.53;;;15.14;63.58
9325;BME280;4701;51.566;6.776;2023-02-22T12:43:44;100757.91;;;15.34;63.06
9325;BME280;4701;51.566;6.776;2023-02-22T12:45:49;100755.09;;;15.58;63.10
9325;BME280;4701;51.566;6.776;2023-02-22T12:47:58;100759.53;;;15.73;60.25
9325;BME280;4701;51.566;6.776;2023-02-22T12:50:08;100758.41;;;15.74;60.38
9325;BME280;4701;51.566;6.776;2023-02-22T12:52:22;100752.75;;;15.84;60.89
9325;BME280;4701;51.566;6.776;2023-02-22T12:54:36;100750.16;;;16.20;62.35
9325;BME280;4701;51.566;6.776;2023-02-22T12:56:47;100759.88;;;16.31;60.35
9325;BME280;4701;51.566;6.776;2023-02-22T12:58:53;100748.16;;;16.39;58.56
9325;BME280;4701;51.566;6.776;2023-02-22T13:00:59;100752.50;;;16.26;58.85
9325;BME280;4701;51.566;6.776;2023-02-22T13:03:21;100757.94;;;16.32;58.29
9325;BME280;4701;51.566;6.776;2023-02-22T13:05:34;100752.81;;;16.52;58.50
9325;BME280;4701;51.566;6.776;2023-02-22T13:07:44;100753.47;;;16.63;57.68
9325;BME280;4701;51.566;6.776;2023-02-22T13:10:19;100759.16;;;16.53;57.83
9325;BME280;4701;51.566;6.776;2023-02-22T13:12:33;100766.72;;;16.88;56.49
9325;BME280;4701;51.566;6.776;2023-02-22T13:14:47;100759.47;;;16.79;53.74
9325;BME280;4701;51.566;6.776;2023-02-22T13:16:59;100751.44;;;16.69;53.30
9325;BME280;4701;51.566;6.776;2023-02-22T13:19:07;100754.25;;;16.36;53.65
9325;BME280;4701;51.566;6.776;2023-02-22T13:21:22;100754.69;;;16.71;53.49
9325;BME280;4701;51.566;6.776;2023-02-22T13:23:38;100741.75;;;16.57;53.79
9325;BME280;4701;51.566;6.776;2023-02-22T13:25:47;100735.81;;;16.37;52.38
9325;BME280;4701;51.566;6.776;2023-02-22T13:27:58;100740.59;;;16.45;54.54
9325;BME280;4701;51.566;6.776;2023-02-22T13:30:01;100746.91;;;16.59;53.71
9325;BME280;4701;51.566;6.776;2023-02-22T13:32:16;100743.47;;;16.40;55.19
9325;BME280;4701;51.566;6.776;2023-02-22T13:34:37;100728.09;;;16.39;53.53
9325;BME280;4701;51.566;6.776;2023-02-22T13:37:00;100738.00;;;15.94;55.99
9325;BME280;4701;51.566;6.776;2023-02-22T13:39:34;100735.19;;;16.12;55.63
9325;BME280;4701;51.566;6.776;2023-02-22T13:41:48;100733.13;;;15.91;56.03
9325;BME280;4701;51.566;6.776;2023-02-22T13:46:52;100733.03;;;16.09;57.14
9325;BME280;4701;51.566;6.776;2023-02-22T13:49:14;100731.50;;;15.89;57.49
9325;BME280;4701;51.566;6.776;2023-02-22T13:51:34;100731.28;;;15.86;57.23
9325;BME280;4701;51.566;6.776;2023-02-22T13:53:48;100730.69;;;15.38;55.51
9325;BME280;4701;51.566;6.776;2023-02-22T13:55:57;100723.03;;;15.35;57.63
9325;BME280;4701;51.566;6.776;2023-02-22T13:58:02;100725.19;;;15.57;59.10
9325;BME280;4701;51.566;6.776;2023-02-22T14:00:21;100727.59;;;15.77;56.57
9325;BME280;4701;51.566;6.776;2023-02-22T14:02:56;100718.91;;;15.70;56.35
9325;BME280;4701;51.566;6.776;2023-02-22T14:04:59;100720.44;;;15.43;56.67
9325;BME280;4701;51.566;6.776;2023-02-22T14:07:03;100716.13;;;15.37;58.19
9325;BME280;4701;51.566;6.776;2023-02-22T14:11:53;100724.59;;;15.60;58.33
9325;BME280;4701;51.566;6.776;2023-02-22T14:14:09;100709.81;;;15.37;58.17
9325;BME280;4701;51.566;6.776;2023-02-22T14:16:26;100719.69;;;15.38;59.07
9325;BME280;4701;51.566;6.776;2023-02-22T14:18:30;100722.44;;;15.38;59.32
9325;BME280;4701;51.566;6.776;2023-02-22T14:20:37;100724.13;;;15.52;59.49
9325;BME280;4701;51.566;6.776;2023-02-22T14:22:39;100726.75;;;15.25;58.34
9325;BME280;4701;51.566;6.776;2023-02-22T14:24:43;100724.28;;;15.42;59.71
9325;BME280;4701;51.566;6.776;2023-02-22T14:26:57;100721.25;;;15.25;60.44
9325;BME280;4701;51.566;6.776;2023-02-22T14:29:01;100724.91;;;15.02;60.11
9325;BME280;4701;51.566;6.776;2023-02-22T14:31:08;100721.94;;;14.80;60.41
9325;BME280;4701;51.566;6.776;2023-02-22T14:33:54;100728.72;;;14.63;60.59
9325;BME280;4701;51.566;6.776;2023-02-22T14:35:56;100722.72;;;14.61;61.78
9325;BME280;4701;51.566;6.776;2023-02-22T14:37:59;100720.63;;;14.72;62.02
9325;BME280;4701;51.566;6.776;2023-02-22T14:40:05;100728.22;;;14.61;62.47
9325;BME280;4701;51.566;6.776;2023-02-22T14:42:18;100719.41;;;14.41;63.62
9325;BME280;4701;51.566;6.776;2023-02-22T14:44:24;100722.00;;;14.27;64.37
9325;BME280;4701;51.566;6.776;2023-02-22T14:46:31;100728.88;;;14.24;64.60
9325;BME280;4701;51.566;6.776;2023-02-22T14:48:36;100724.28;;;14.20;65.33
9325;BME280;4701;51.566;6.776;2023-02-22T14:50:42;100722.50;;;14.05;65.18
9325;BME280;4701;51.566;6.776;2023-02-22T14:52:54;100724.97;;;14.07;66.53
9325;BME280;4701;51.566;6.776;2023-02-22T14:55:16;100727.94;;;14.10;65.83
9325;BME280;4701;51.566;6.776;2023-02-22T14:57:23;100729.06;;;14.09;66.04
9325;BME280;4701;51.566;6.776;2023-02-22T14:59:27;100723.38;;;14.00;66.06
9325;BME280;4701;51.566;6.776;2023-02-22T15:01:33;100725.31;;;14.00;66.47
9325;BME280;4701;51.566;6.776;2023-02-22T15:03:35;100725.59;;;13.98;66.75
9325;BME280;4701;51.566;6.776;2023-02-22T15:05:39;100729.63;;;14.06;66.98
9325;BME280;4701;51.566;6.776;2023-02-22T15:07:49;100729.34;;;14.08;67.23
9325;BME280;4701;51.566;6.776;2023-02-22T15:10:05;100722.78;;;14.03;66.14
9325;BME280;4701;51.566;6.776;2023-02-22T15:12:12;100736.81;;;14.02;66.82
9325;BME280;4701;51.566;6.776;2023-02-22T15:14:21;100734.44;;;14.19;66.23
9325;BME280;4701;51.566;6.776;2023-02-22T15:16:25;100735.47;;;14.23;66.63
9325;BME280;4701;51.566;6.776;2023-02-22T15:18:32;100727.78;;;14.25;65.95
9325;BME280;4701;51.566;6.776;2023-02-22T15:20:34;100728.78;;;14.11;66.59
9325;BME280;4701;51.566;6.776;2023-02-22T15:22:37;100737.00;;;14.11;66.97
9325;BME280;4701;51.566;6.776;2023-02-22T15:24:39;100734.88;;;14.02;67.05
9325;BME280;4701;51.566;6.776;2023-02-22T15:26:41;100733.16;;;14.12;67.10
9325;BME280;4701;51.566;6.776;2023-02-22T15:28:44;100731.44;;;14.16;66.31
9325;BME280;4701;51.566;6.776;2023-02-22T15:30:47;100729.69;;;14.01;67.05
9325;BME280;4701;51.566;6.776;2023-02-22T15:32:49;100739.00;;;14.00;67.28
9325;BME280;4701;51.566;6.776;2023-02-22T15:34:51;100741.22;;;13.98;67.53
9325;BME280;4701;51.566;6.776;2023-02-22T15:37:01;100740.31;;;14.08;67.16
9325;BME280;4701;51.566;6.776;2023-02-22T15:39:18;100732.47;;;13.96;67.47
9325;BME280;4701;51.566;6.776;2023-02-22T15:41:23;100745.16;;;13.87;68.14
9325;BME280;4701;51.566;6.776;2023-02-22T15:43:27;100734.81;;;13.79;68.57
9325;BME280;4701;51.566;6.776;2023-02-22T15:45:31;100739.19;;;13.80;68.95
9325;BME280;4701;51.566;6.776;2023-02-22T15:47:34;100743.28;;;13.82;68.58
9325;BME280;4701;51.566;6.776;2023-02-22T15:49:39;100742.19;;;13.83;68.73
9325;BME280;4701;51.566;6.776;2023-02-22T15:51:42;100733.72;;;13.80;68.36
9325;BME280;4701;51.566;6.776;2023-02-22T15:53:47;100741.22;;;13.69;69.13
9325;BME280;4701;51.566;6.776;2023-02-22T15:55:55;100744.00;;;13.64;69.72
9325;BME280;4701;51.566;6.776;2023-02-22T15:57:59;100744.53;;;13.66;70.24
9325;BME280;4701;51.566;6.776;2023-02-22T16:00:03;100741.53;;;13.62;70.42
9325;BME280;4701;51.566;6.776;2023-02-22T16:02:31;100749.53;;;13.59;70.77
9325;BME280;4701;51.566;6.776;2023-02-22T16:04:35;100749.00;;;13.57;70.73
9325;BME280;4701;51.566;6.776;2023-02-22T16:06:39;100742.22;;;13.49;70.73
9325;BME280;4701;51.566;6.776;2023-02-22T16:08:47;100745.56;;;13.41;71.17
9325;BME280;4701;51.566;6.776;2023-02-22T16:10:52;100746.91;;;13.44;71.85
9325;BME280;4701;51.566;6.776;2023-02-22T16:13:06;100755.69;;;13.41;71.65
9325;BME280;4701;51.566;6.776;2023-02-22T16:15:15;100745.00;;;13.39;72.39
9325;BME280;4701;51.566;6.776;2023-02-22T16:17:29;100745.28;;;13.38;71.74
9325;BME280;4701;51.566;6.776;2023-02-22T16:19:36;100749.72;;;13.34;72.19
9325;BME280;4701;51.566;6.776;2023-02-22T16:21:50;100752.97;;;13.36;72.14
9325;BME280;4701;51.566;6.776;2023-02-22T16:23:54;100756.56;;;13.31;72.02
9325;BME280;4701;51.566;6.776;2023-02-22T16:26:05;100754.94;;;13.30;72.09
9325;BME280;4701;51.566;6.776;2023-02-22T16:28:25;100749.22;;;13.27;72.03
9325;BME280;4701;51.566;6.776;2023-02-22T16:30:29;100760.19;;;13.21;72.35
9325;BME280;4701;51.566;6.776;2023-02-22T16:32:32;100750.31;;;13.25;72.11
9325;BME280;4701;51.566;6.776;2023-02-22T16:34:33;100757.78;;;13.10;72.82
9325;BME280;4701;51.566;6.776;2023-02-22T16:36:39;100763.03;;;13.01;73.84
9325;BME280;4701;51.566;6.776;2023-02-22T16:38:41;100761.63;;;13.04;73.08
9325;BME280;4701;51.566;6.776;2023-02-22T16:40:47;100757.56;;;12.96;73.37
9325;BME280;4701;51.566;6.776;2023-02-22T16:42:51;100767.19;;;12.88;74.15
9325;BME280;4701;51.566;6.776;2023-02-22T16:44:53;100769.09;;;12.88;73.86
9325;BME280;4701;51.566;6.776;2023-02-22T16:46:56;100769.66;;;12.85;73.98
9325;BME280;4701;51.566;6.776;2023-02-22T16:48:58;100770.78;;;12.79;74.42
9325;BME280;4701;51.566;6.776;2023-02-22T16:51:06;100770.78;;;12.79;74.86
9325;BME280;4701;51.566;6.776;2023-02-22T16:53:11;100771.06;;;12.77;75.14
9325;BME280;4701;51.566;6.776;2023-02-22T16:55:14;100769.47;;;12.71;74.89
9325;BME280;4701;51.566;6.776;2023-02-22T16:57:19;100771.69;;;12.64;74.93
9325;BME280;4701;51.566;6.776;2023-02-22T16:59:22;100765.34;;;12.69;75.20
9325;BME280;4701;51.566;6.776;2023-02-22T17:01:24;100767.28;;;12.68;75.22
9325;BME280;4701;51.566;6.776;2023-02-22T17:03:25;100769.78;;;12.65;75.38
9325;BME280;4701;51.566;6.776;2023-02-22T17:05:27;100766.50;;;12.63;75.98
9325;BME280;4701;51.566;6.776;2023-02-22T17:07:30;100770.88;;;12.64;76.15
9325;BME280;4701;51.566;6.776;2023-02-22T17:09:33;100767.06;;;12.55;76.04
9325;BME280;4701;51.566;6.776;2023-02-22T17:11:35;100776.91;;;12.56;77.03
9325;BME280;4701;51.566;6.776;2023-02-22T17:13:38;100779.09;;;12.54;77.12
9325;BME280;4701;51.566;6.776;2023-02-22T17:15:40;100786.22;;;12.49;77.07
9325;BME280;4701;51.566;6.776;2023-02-22T17:17:42;100783.75;;;12.43;77.55
9325;BME280;4701;51.566;6.776;2023-02-22T17:19:44;100789.81;;;12.40;77.66
9325;BME280;4701;51.566;6.776;2023-02-22T17:21:46;100793.09;;;12.37;77.83
9325;BME280;4701;51.566;6.776;2023-02-22T17:23:47;100791.72;;;12.34;77.90
9325;BME280;4701;51.566;6.776;2023-02-22T17:25:52;100797.50;;;12.23;78.26
9325;BME280;4701;51.566;6.776;2023-02-22T17:27:54;100807.88;;;12.21;78.63
9325;BME280;4701;51.566;6.776;2023-02-22T17:29:56;100801.63;;;12.15;78.97
9325;BME280;4701;51.566;6.776;2023-02-22T17:31:57;100806.53;;;12.13;79.20
9325;BME280;4701;51.566;6.776;2023-02-22T17:34:01;100808.16;;;12.09;79.55
9325;BME280;4701;51.566;6.776;2023-02-22T17:36:04;100810.06;;;12.08;79.91
9325;BME280;4701;51.566;6.776;2023-02-22T17:38:06;100801.34;;;12.01;79.72
9325;BME280;4701;51.566;6.776;2023-02-22T17:40:08;100810.09;;;11.98;80.28
9325;BME280;4701;51.566;6.776;2023-02-22T17:42:11;100810.91;;;11.99;80.42
9325;BME280;4701;51.566;6.776;2023-02-22T17:44:14;100814.22;;;11.91;81.14
9325;BME280;4701;51.566;6.776;2023-02-22T17:46:16;100811.72;;;11.84;81.25
9325;BME280;4701;51.566;6.776;2023-02-22T17:48:19;100812.25;;;11.71;81.68
9325;BME280;4701;51.566;6.776;2023-02-22T17:50:21;100808.13;;;11.68;82.19
9325;BME280;4701;51.566;6.776;2023-02-22T17:52:23;100820.72;;;11.69;82.19
9325;BME280;4701;51.566;6.776;2023-02-22T17:54:29;100824.53;;;11.63;82.70
9325;BME280;4701;51.566;6.776;2023-02-22T17:56:31;100822.34;;;11.55;82.80
9325;BME280;4701;51.566;6.776;2023-02-22T17:58:35;100821.78;;;11.58;82.87
9325;BME280;4701;51.566;6.776;2023-02-22T18:00:37;100822.31;;;11.50;83.39
9325;BME280;4701;51.566;6.776;2023-02-22T18:02:39;100830.50;;;11.50;83.48
9325;BME280;4701;51.566;6.776;2023-02-22T18:04:41;100829.94;;;11.38;83.86
9325;BME280;4701;51.566;6.776;2023-02-22T18:06:43;100836.50;;;11.37;84.69
9325;BME280;4701;51.566;6.776;2023-02-22T18:08:46;100837.59;;;11.36;84.41
9325;BME280;4701;51.566;6.776;2023-02-22T18:10:48;100838.66;;;11.30;84.65
9325;BME280;4701;51.566;6.776;2023-02-22T18:12:52;100844.34;;;11.23;85.47
9325;BME280;4701;51.566;6.776;2023-02-22T18:14:57;100839.16;;;11.17;85.75
9325;BME280;4701;51.566;6.776;2023-02-22T18:16:59;100846.78;;;11.15;86.17
9325;BME280;4701;51.566;6.776;2023-02-22T18:19:01;100844.34;;;11.18;86.32
9325;BME280;4701;51.566;6.776;2023-02-22T18:21:04;100841.06;;;11.11;86.57
9325;BME280;4701;51.566;6.776;2023-02-22T18:23:07;100843.50;;;11.08;86.89
9325;BME280;4701;51.566;6.776;2023-02-22T18:25:10;100848.41;;;11.06;87.35
9325;BME280;4701;51.566;6.776;2023-02-22T18:27:13;100848.09;;;10.97;87.53
9325;BME280;4701;51.566;6.776;2023-02-22T18:29:15;100852.75;;;10.96;87.99
9325;BME280;4701;51.566;6.776;2023-02-22T18:31:19;100850.78;;;10.92;88.30